createdAt,value
2022-11-22T00:01:51.308Z,11.63
2022-11-22T00:04:53.860Z,8.30
2022-11-22T00:07:57.794Z,18.17
2022-11-22T00:11:00.360Z,10.63
2022-11-22T00:14:02.919Z,13.50
2022-11-22T00:17:05.414Z,5.25
2022-11-22T00:20:10.518Z,4.10
2022-11-22T00:23:14.405Z,3.75
2022-11-22T00:26:16.865Z,14.73
2022-11-22T00:29:19.310Z,12.30
2022-11-22T00:32:21.827Z,17.08
2022-11-22T00:35:24.290Z,13.57
2022-11-22T00:38:28.263Z,11.25
2022-11-22T00:41:30.814Z,14.13
2022-11-22T00:44:33.389Z,13.45
2022-11-22T00:47:35.819Z,13.63
2022-11-22T00:50:38.385Z,11.60
2022-11-22T00:53:42.226Z,7.25
2022-11-22T00:56:44.732Z,14.10
2022-11-22T00:59:47.316Z,6.45
2022-11-22T01:02:49.790Z,13.90
2022-11-22T01:05:52.533Z,7.35
2022-11-22T01:08:56.463Z,17.60
2022-11-22T01:11:59.063Z,16.60
2022-11-22T01:15:01.658Z,14.20
2022-11-22T01:18:04.233Z,12.52
2022-11-22T01:21:07.236Z,12.98
2022-11-22T01:24:11.275Z,18.65
2022-11-22T01:27:13.704Z,13.68
2022-11-22T01:30:16.485Z,14.20
2022-11-22T01:33:19.429Z,12.35
2022-11-22T01:36:21.918Z,13.20
2022-11-22T01:39:25.740Z,14.43
2022-11-22T01:42:40.803Z,14.13
2022-11-22T01:45:44.800Z,12.90
2022-11-22T01:48:49.595Z,13.95
2022-11-22T01:51:54.171Z,14.20
2022-11-22T01:54:59.349Z,12.85
2022-11-22T01:58:02.042Z,16.70
2022-11-22T02:01:04.936Z,9.90
2022-11-22T02:04:08.600Z,15.60
2022-11-22T02:07:13.662Z,15.88
2022-11-22T02:10:18.406Z,16.50
2022-11-22T02:13:22.321Z,18.27
2022-11-22T02:16:24.852Z,14.82
2022-11-22T02:19:29.663Z,9.82
2022-11-22T02:22:33.818Z,10.73
2022-11-22T02:25:43.271Z,13.68
2022-11-22T02:28:45.871Z,17.23
2022-11-22T02:31:48.569Z,17.10
2022-11-22T02:34:51.835Z,14.48
2022-11-22T02:37:57.290Z,12.65
2022-11-22T02:41:03.156Z,15.57
2022-11-22T02:44:07.387Z,15.27
2022-11-22T02:47:09.851Z,13.60
2022-11-22T02:50:12.446Z,16.83
2022-11-22T02:53:15.074Z,12.40
2022-11-22T02:56:19.064Z,15.38
2022-11-22T02:59:21.553Z,14.45
2022-11-22T03:02:24.198Z,17.25
2022-11-22T03:05:26.791Z,18.52
2022-11-22T03:08:29.497Z,12.52
2022-11-22T03:11:33.387Z,14.80
2022-11-22T03:14:35.947Z,11.70
2022-11-22T03:17:38.434Z,13.60
2022-11-22T03:20:40.985Z,14.75
2022-11-22T03:23:43.517Z,18.08
2022-11-22T03:26:49.233Z,9.80
2022-11-22T03:29:51.736Z,13.52
2022-11-22T03:32:54.260Z,14.07
2022-11-22T03:35:57.111Z,15.57
2022-11-22T03:39:00.222Z,15.98
2022-11-22T03:42:04.238Z,19.13
2022-11-22T03:45:07.473Z,12.73
2022-11-22T03:48:09.988Z,12.90
2022-11-22T03:51:12.513Z,14.48
2022-11-22T03:54:15.118Z,14.57
2022-11-22T03:57:19.084Z,12.13
2022-11-22T04:00:21.791Z,16.05
2022-11-22T04:03:26.769Z,16.10
2022-11-22T04:06:29.416Z,16.33
2022-11-22T04:09:32.379Z,12.10
2022-11-22T04:12:36.602Z,19.38
2022-11-22T04:15:38.170Z,16.20
2022-11-22T04:18:41.805Z,10.45
2022-11-22T04:21:43.333Z,11.27
2022-11-22T04:25:04.875Z,16.98
2022-11-22T04:28:09.384Z,12.40
2022-11-22T04:31:29.445Z,18.40
2022-11-22T04:34:32.014Z,13.25
2022-11-22T04:37:34.606Z,17.45
2022-11-22T04:40:37.282Z,12.77
2022-11-22T04:43:59.047Z,21.02
2022-11-22T04:47:01.531Z,19.23
2022-11-22T04:50:24.700Z,18.73
2022-11-22T04:53:26.685Z,13.50
2022-11-22T04:56:29.424Z,15.05
2022-11-22T04:59:33.426Z,14.93
2022-11-22T05:02:36.070Z,13.50
2022-11-22T05:05:39.222Z,6.47
2022-11-22T05:08:41.702Z,16.48
2022-11-22T05:11:44.381Z,8.48
2022-11-22T05:14:48.307Z,17.40
2022-11-22T05:17:50.902Z,15.10
2022-11-22T05:20:53.758Z,12.93
2022-11-22T05:23:56.745Z,13.15
2022-11-22T05:26:59.248Z,17.75
2022-11-22T05:30:03.585Z,13.98
2022-11-22T05:33:06.278Z,15.18
2022-11-22T05:36:09.357Z,13.75
2022-11-22T05:39:12.125Z,13.90
2022-11-22T05:42:15.004Z,16.23
2022-11-22T05:45:19.027Z,15.57
2022-11-22T05:48:21.571Z,19.63
2022-11-22T05:51:30.575Z,7.72
2022-11-22T05:54:35.084Z,9.93
2022-11-22T05:57:37.659Z,13.55
2022-11-22T06:00:41.570Z,11.27
2022-11-22T06:03:44.526Z,14.25
2022-11-22T06:06:47.442Z,9.32
2022-11-22T06:09:50.283Z,19.05
2022-11-22T06:12:52.903Z,15.45
2022-11-22T06:16:00.531Z,15.35
2022-11-22T06:19:03.205Z,11.48
2022-11-22T06:22:06.063Z,17.00
2022-11-22T06:25:09.413Z,16.05
2022-11-22T06:28:12.115Z,17.00
2022-11-22T06:31:16.604Z,15.50
2022-11-22T06:34:19.047Z,14.95
2022-11-22T06:37:21.601Z,15.27
2022-11-22T06:40:24.142Z,16.98
2022-11-22T06:43:27.817Z,20.48
2022-11-22T06:46:31.731Z,16.98
2022-11-22T06:49:34.292Z,15.18
2022-11-22T06:52:36.872Z,15.15
2022-11-22T06:55:59.766Z,14.95
2022-11-22T06:59:02.697Z,16.98
2022-11-22T07:02:07.819Z,17.50
2022-11-22T07:05:25.236Z,13.77
2022-11-22T07:08:28.828Z,8.13
2022-11-22T07:11:32.337Z,13.13
2022-11-22T07:14:34.951Z,15.07
2022-11-22T07:17:38.847Z,15.52
2022-11-22T07:20:41.931Z,17.40
2022-11-22T07:23:45.395Z,11.35
2022-11-22T07:26:48.182Z,14.85
2022-11-22T07:29:51.130Z,16.60
2022-11-22T07:32:55.153Z,12.75
2022-11-22T07:36:04.916Z,18.40
2022-11-22T07:39:08.103Z,18.13
2022-11-22T07:42:10.695Z,16.75
2022-11-22T07:45:13.561Z,16.65
2022-11-22T07:48:17.425Z,17.38
2022-11-22T07:51:20.098Z,17.08
2022-11-22T07:54:22.741Z,21.30
2022-11-22T07:57:25.357Z,17.20
2022-11-22T08:00:28.388Z,11.05
2022-11-22T08:03:32.392Z,16.17
2022-11-22T08:06:35.513Z,17.83
2022-11-22T08:09:38.377Z,13.13
2022-11-22T08:12:41.442Z,12.65
2022-11-22T08:15:45.523Z,16.77
2022-11-22T08:18:53.218Z,14.82
2022-11-22T08:21:58.613Z,14.77
2022-11-22T08:25:01.558Z,6.10
2022-11-22T08:28:04.405Z,1.52
2022-11-22T08:31:08.338Z,15.98
2022-11-22T08:34:12.294Z,14.85
2022-11-22T08:37:15.028Z,20.17
2022-11-22T08:40:18.236Z,14.88
2022-11-22T08:43:22.994Z,13.10
2022-11-22T08:46:26.098Z,14.70
2022-11-22T08:49:30.424Z,4.18
2022-11-22T08:52:35.244Z,22.42
2022-11-22T08:55:38.189Z,5.95
2022-11-22T08:58:41.737Z,16.30
2022-11-22T09:01:46.294Z,14.30
2022-11-22T09:04:51.089Z,21.33
2022-11-22T09:11:21.540Z,19.35
2022-11-22T09:14:34.394Z,19.48
2022-11-22T09:17:45.541Z,19.10
2022-11-22T09:21:02.415Z,20.00
2022-11-22T09:24:17.261Z,17.38
2022-11-22T09:27:40.931Z,21.35
2022-11-22T09:30:44.265Z,17.13
2022-11-22T09:33:53.969Z,18.52
2022-11-22T09:37:25.190Z,17.88
2022-11-22T09:40:54.261Z,17.58
2022-11-22T09:44:03.863Z,21.42
2022-11-22T09:47:12.168Z,17.08
2022-11-22T09:50:23.313Z,22.90
2022-11-22T09:54:06.539Z,22.70
2022-11-22T09:57:41.856Z,20.70
2022-11-22T10:01:14.150Z,16.52
2022-11-22T10:04:27.741Z,17.42
2022-11-22T10:07:32.640Z,18.85
2022-11-22T10:10:56.303Z,18.58
2022-11-22T10:14:39.139Z,21.88
2022-11-22T10:17:53.640Z,15.85
2022-11-22T10:20:56.662Z,3.20
2022-11-22T10:24:03.846Z,18.38
2022-11-22T10:27:07.423Z,22.65
2022-11-22T10:30:16.251Z,19.05
2022-11-22T10:33:21.412Z,18.15
2022-11-22T10:36:27.844Z,19.13
2022-11-22T10:39:38.320Z,12.02
2022-11-22T10:42:50.891Z,17.67
2022-11-22T10:45:57.409Z,17.10
2022-11-22T10:49:02.030Z,15.55
2022-11-22T10:52:07.943Z,23.50
2022-11-22T10:55:18.971Z,18.35
2022-11-22T10:58:26.265Z,19.73
2022-11-22T11:01:35.855Z,24.00
2022-11-22T11:04:41.740Z,15.60
2022-11-22T11:07:47.444Z,18.65
2022-11-22T11:10:50.417Z,22.10
2022-11-22T11:13:54.128Z,17.20
2022-11-22T11:17:01.166Z,16.90
2022-11-22T11:20:14.864Z,19.40
2022-11-22T11:23:20.764Z,13.35
2022-11-22T11:26:29.096Z,15.93
2022-11-22T11:29:42.452Z,21.38
2022-11-22T11:37:53.615Z,16.10
2022-11-22T11:40:56.750Z,18.52
2022-11-22T11:43:59.873Z,16.73
2022-11-22T11:47:03.008Z,12.95
2022-11-22T11:50:22.484Z,19.02
2022-11-22T11:53:28.586Z,15.63
2022-11-22T11:56:33.727Z,20.92
2022-11-22T11:59:44.355Z,14.13
2022-11-22T12:02:52.046Z,22.48
2022-11-22T12:06:12.971Z,14.52
2022-11-22T12:09:28.626Z,25.08
2022-11-22T12:12:34.425Z,20.30
2022-11-22T12:15:53.760Z,19.35
2022-11-22T12:19:00.406Z,16.45
2022-11-22T12:22:29.428Z,17.90
2022-11-22T12:25:45.624Z,20.42
2022-11-22T12:29:08.182Z,13.40
2022-11-22T12:33:01.375Z,22.17
2022-11-22T12:36:04.781Z,19.52
2022-11-22T12:39:13.279Z,23.77
2022-11-22T12:42:23.273Z,19.90
2022-11-22T12:45:41.635Z,17.38
2022-11-22T12:48:49.437Z,25.67
2022-11-22T12:51:54.891Z,22.50
2022-11-22T12:55:00.899Z,17.65
2022-11-22T12:58:10.480Z,19.67
2022-11-22T13:01:16.281Z,18.35
2022-11-22T13:04:23.255Z,23.27
2022-11-22T13:07:31.335Z,10.90
2022-11-22T13:10:39.519Z,25.60
2022-11-22T13:13:46.261Z,20.10
2022-11-22T13:16:55.784Z,20.90
2022-11-22T13:20:02.591Z,14.25
2022-11-22T13:23:43.784Z,16.55
2022-11-22T13:27:07.269Z,21.17
2022-11-22T13:30:43.380Z,15.80
2022-11-22T13:33:53.414Z,11.18
2022-11-22T13:37:01.649Z,23.90
2022-11-22T13:40:11.902Z,19.52
2022-11-22T13:43:34.776Z,18.38
2022-11-22T13:47:00.642Z,18.67
2022-11-22T13:50:03.256Z,23.75
2022-11-22T13:53:21.942Z,20.63
2022-11-22T13:56:48.547Z,18.40
2022-11-22T14:00:21.051Z,22.05
2022-11-22T14:03:35.692Z,21.92
2022-11-22T14:06:39.428Z,20.05
2022-11-22T14:09:46.314Z,20.40
2022-11-22T14:13:03.985Z,14.73
2022-11-22T14:16:13.723Z,22.92
2022-11-22T14:19:27.839Z,22.10
2022-11-22T14:22:34.748Z,18.45
2022-11-22T14:25:46.288Z,18.83
2022-11-22T14:29:13.049Z,16.90
2022-11-22T14:32:16.469Z,20.65
2022-11-22T14:35:29.942Z,22.45
2022-11-22T14:39:01.374Z,25.67
2022-11-22T14:42:26.781Z,27.80
2022-11-22T14:45:47.250Z,20.52
2022-11-22T14:48:51.979Z,18.60
2022-11-22T14:51:56.548Z,21.50
2022-11-22T14:55:13.517Z,23.35
2022-11-22T14:58:19.621Z,19.30
2022-11-22T15:01:40.162Z,23.67
2022-11-22T15:09:22.949Z,18.20
2022-11-22T15:09:23.226Z,21.52
2022-11-22T15:58:46.733Z,23.25
2022-11-22T16:02:10.427Z,31.05
2022-11-22T16:06:07.337Z,23.88
2022-11-22T16:08:53.174Z,21.00
2022-11-22T16:12:01.307Z,22.05
2022-11-22T16:15:22.856Z,22.95
2022-11-22T16:18:32.808Z,23.40
2022-11-22T16:21:50.695Z,21.55
2022-11-22T16:25:16.840Z,19.75
2022-11-22T16:28:27.307Z,20.23
2022-11-22T16:31:38.602Z,21.67
2022-11-22T16:34:47.024Z,19.75
2022-11-22T16:37:56.629Z,21.38
2022-11-22T16:41:00.921Z,28.55
2022-11-22T16:44:21.076Z,23.95
2022-11-22T16:47:28.445Z,22.67
2022-11-22T16:50:33.797Z,27.92
2022-11-22T16:53:41.348Z,27.75
2022-11-22T16:56:51.525Z,23.13
2022-11-22T16:59:57.999Z,13.85
2022-11-22T17:03:20.273Z,18.88
2022-11-22T17:06:32.896Z,25.98
2022-11-22T17:09:38.117Z,18.52
2022-11-22T17:12:43.340Z,21.70
2022-11-22T17:15:57.131Z,25.42
2022-11-22T17:19:37.323Z,21.75
2022-11-22T17:22:53.546Z,28.63
2022-11-22T17:26:00.997Z,18.85
2022-11-22T17:29:06.648Z,22.25
2022-11-22T17:32:13.061Z,23.92
2022-11-22T17:35:16.547Z,16.88
2022-11-22T17:38:34.843Z,19.05
2022-11-22T17:41:38.091Z,24.08
2022-11-22T17:44:41.874Z,22.38
2022-11-22T17:47:45.445Z,15.60
2022-11-22T17:50:50.769Z,24.88
2022-11-22T17:53:54.835Z,22.60
2022-11-22T17:56:57.506Z,26.13
2022-11-22T18:00:00.170Z,28.73
2022-11-22T18:03:07.950Z,20.23
2022-11-22T18:06:11.616Z,22.23
2022-11-22T18:09:15.562Z,23.83
2022-11-22T18:12:18.609Z,25.15
2022-11-22T18:15:21.363Z,23.02
2022-11-22T18:18:54.665Z,25.23
2022-11-22T18:21:47.840Z,16.48
2022-11-22T18:24:51.955Z,19.08
2022-11-22T18:27:54.549Z,27.02
2022-11-22T18:30:57.663Z,25.20
2022-11-22T18:34:02.759Z,24.50
2022-11-22T18:37:09.713Z,22.40
2022-11-22T18:40:14.696Z,22.15
2022-11-22T18:43:17.470Z,27.30
2022-11-22T18:46:20.346Z,25.92
2022-11-22T18:49:24.171Z,26.17
2022-11-22T18:52:26.958Z,21.55
2022-11-22T18:55:31.194Z,28.88
2022-11-22T18:58:34.970Z,29.38
2022-11-22T19:01:37.975Z,21.77
2022-11-22T19:04:40.683Z,22.08
2022-11-22T19:07:43.413Z,26.85
2022-11-22T19:10:56.100Z,24.65
2022-11-22T19:13:58.781Z,24.40
2022-11-22T19:17:01.700Z,17.23
2022-11-22T19:20:04.491Z,20.88
2022-11-22T19:23:07.182Z,23.77
2022-11-22T19:26:12.154Z,29.40
2022-11-22T19:29:14.897Z,26.67
2022-11-22T19:32:17.813Z,27.00
2022-11-22T19:35:20.662Z,23.98
2022-11-22T19:38:28.992Z,30.05
2022-11-22T19:41:41.255Z,28.52
2022-11-22T19:44:49.689Z,20.88
2022-11-22T19:47:59.136Z,20.65
2022-11-22T19:51:05.976Z,25.55
2022-11-22T19:54:10.030Z,23.77
2022-11-22T19:57:17.053Z,27.80
2022-11-22T20:00:19.802Z,21.77
2022-11-22T20:03:23.769Z,27.65
2022-11-22T20:06:27.123Z,23.27
2022-11-22T20:09:30.688Z,23.73
2022-11-22T20:12:35.287Z,25.42
2022-11-22T20:15:37.922Z,28.40
2022-11-22T20:18:40.833Z,30.25
2022-11-22T20:21:43.971Z,26.52
2022-11-22T20:24:46.856Z,27.20
2022-11-22T20:28:11.928Z,25.00
2022-11-22T20:31:20.077Z,28.58
2022-11-22T20:34:25.336Z,29.38
2022-11-22T20:37:28.351Z,24.77
2022-11-22T20:40:34.402Z,20.75
2022-11-22T20:43:38.937Z,26.63
2022-11-22T20:46:42.509Z,25.52
2022-11-22T20:49:45.836Z,28.65
2022-11-22T20:52:49.604Z,19.38
2022-11-22T20:55:53.721Z,29.23
2022-11-22T20:58:58.536Z,23.50
2022-11-22T21:02:06.364Z,23.25
2022-11-22T21:05:12.689Z,24.90
2022-11-22T21:08:18.178Z,21.88
2022-11-22T21:11:24.132Z,21.48
2022-11-22T21:14:28.313Z,23.50
2022-11-22T21:17:55.775Z,22.38
2022-11-22T21:20:55.381Z,24.77
2022-11-22T21:23:59.364Z,23.25
2022-11-22T21:27:01.975Z,22.20
2022-11-22T21:30:07.380Z,26.98
2022-11-22T21:33:10.060Z,25.58
2022-11-22T21:36:22.407Z,23.02
2022-11-22T21:39:25.752Z,34.00
2022-11-22T21:42:28.391Z,19.58
2022-11-22T21:45:32.413Z,22.27
2022-11-22T21:48:35.558Z,21.13
2022-11-22T21:51:38.656Z,20.95
2022-11-22T21:54:41.980Z,26.15
2022-11-22T21:57:46.448Z,21.13
2022-11-22T22:00:51.365Z,23.08
2022-11-22T22:03:54.227Z,26.50
2022-11-22T22:06:57.708Z,27.75
2022-11-22T22:10:00.407Z,25.42
2022-11-22T22:13:03.248Z,19.02
2022-11-22T22:16:08.287Z,21.17
2022-11-22T22:19:17.262Z,29.20
2022-11-22T22:22:19.918Z,23.63
2022-11-22T22:25:26.400Z,24.95
2022-11-22T22:28:30.809Z,24.75
2022-11-22T22:31:40.437Z,21.60
2022-11-22T22:34:49.114Z,21.20
2022-11-22T22:37:52.503Z,21.45
2022-11-22T22:40:56.726Z,19.80
2022-11-22T22:43:59.803Z,22.48
2022-11-22T22:47:05.998Z,23.65
2022-11-22T22:50:12.139Z,24.13
2022-11-22T22:53:15.248Z,23.88
2022-11-22T22:56:22.541Z,18.98
2022-11-22T22:59:25.482Z,30.42
2022-11-22T23:02:30.032Z,25.70
2022-11-22T23:05:33.044Z,24.25
2022-11-22T23:08:39.119Z,28.25
2022-11-22T23:11:59.593Z,21.75
2022-11-22T23:15:02.304Z,23.90
2022-11-22T23:18:06.540Z,28.63
2022-11-22T23:21:13.352Z,21.05
2022-11-22T23:24:16.782Z,11.75
2022-11-22T23:27:19.768Z,25.67
2022-11-22T23:30:22.768Z,20.83
2022-11-22T23:33:28.896Z,20.55
2022-11-22T23:36:36.017Z,22.65
2022-11-22T23:39:40.768Z,29.60
2022-11-22T23:42:43.690Z,23.17
2022-11-22T23:45:46.492Z,22.98
2022-11-22T23:48:54.703Z,30.88
2022-11-22T23:51:57.581Z,20.48
2022-11-22T23:55:00.165Z,25.50
2022-11-22T23:58:02.925Z,18.38
